CPA6011 ZSCN-ZSSS
Flight info
| Callsign | CPA6011 |
|---|---|
| Flight time | N/A |
| Altitude | 39100 |
| Route | PUGIN DCT JDZ DCT TXN G204 AND AND71A |
| Aircraft | A359/H-SDE2E3GHIJ3J4J5LM1ORWXY/LB1D1 |
Departure
| Time | N/A |
|---|---|
| Airport | Nanchang Changbei International Airport (ZSCN) |
Arrival
| Time | 2026-05-04 03:49 |
|---|---|
| Airport | Shanghai Hongqiao International Airport (ZSSS) |
| Time | Latitude | Longitude | Altitude | Speed | Heading |
|---|---|---|---|---|---|
| 2026-05-04 03:26 | 29.96859 | 121.04282 | 21063 ft | 453 kts | 24° |
| 2026-05-04 03:27 | 29.99557 | 121.05971 | 20494 ft | 430 kts | 24° |
| 2026-05-04 03:27 | 30.02149 | 121.07583 | 20050 ft | 423 kts | 23° |
| 2026-05-04 03:27 | 30.04753 | 121.09187 | 19873 ft | 427 kts | 24° |
| 2026-05-04 03:27 | 30.07374 | 121.10810 | 19844 ft | 425 kts | 24° |
| 2026-05-04 03:28 | 30.09980 | 121.12424 | 19848 ft | 424 kts | 24° |
| 2026-05-04 03:28 | 30.12573 | 121.14028 | 19843 ft | 423 kts | 24° |
| 2026-05-04 03:28 | 30.15164 | 121.15634 | 19842 ft | 423 kts | 24° |
| 2026-05-04 03:28 | 30.17755 | 121.17240 | 19839 ft | 422 kts | 24° |
| 2026-05-04 03:29 | 30.20347 | 121.18849 | 19841 ft | 422 kts | 24° |
| 2026-05-04 03:29 | 30.22930 | 121.20454 | 19842 ft | 422 kts | 24° |
| 2026-05-04 03:29 | 30.25570 | 121.21906 | 19838 ft | 417 kts | 15° |
| 2026-05-04 03:29 | 30.28374 | 121.22596 | 19772 ft | 407 kts | 3° |
| 2026-05-04 03:30 | 30.31168 | 121.22964 | 19146 ft | 405 kts | 2° |
| 2026-05-04 03:30 | 30.33983 | 121.23292 | 18441 ft | 407 kts | 2° |
| 2026-05-04 03:30 | 30.36801 | 121.23630 | 17700 ft | 405 kts | 3° |
| 2026-05-04 03:30 | 30.39608 | 121.23980 | 16934 ft | 404 kts | 4° |
| 2026-05-04 03:31 | 30.42355 | 121.24328 | 16230 ft | 402 kts | 4° |
| 2026-05-04 03:31 | 30.45123 | 121.24684 | 15646 ft | 397 kts | 4° |
| 2026-05-04 03:31 | 30.47840 | 121.25046 | 15071 ft | 391 kts | 4° |
| 2026-05-04 03:31 | 30.50525 | 121.25423 | 14525 ft | 385 kts | 5° |
| 2026-05-04 03:32 | 30.53159 | 121.25794 | 13988 ft | 380 kts | 5° |
| 2026-05-04 03:32 | 30.55765 | 121.26160 | 13408 ft | 374 kts | 5° |
| 2026-05-04 03:32 | 30.58327 | 121.26519 | 12870 ft | 368 kts | 5° |
| 2026-05-04 03:32 | 30.60844 | 121.26871 | 12344 ft | 361 kts | 5° |
| 2026-05-04 03:33 | 30.63315 | 121.27217 | 11834 ft | 355 kts | 5° |
| 2026-05-04 03:33 | 30.65747 | 121.27557 | 11494 ft | 345 kts | 5° |
| 2026-05-04 03:33 | 30.68077 | 121.27884 | 11360 ft | 329 kts | 5° |
| 2026-05-04 03:33 | 30.70302 | 121.28197 | 11233 ft | 315 kts | 5° |
| 2026-05-04 03:34 | 30.72429 | 121.28498 | 11111 ft | 302 kts | 5° |
| 2026-05-04 03:34 | 30.74477 | 121.28785 | 10970 ft | 291 kts | 5° |
| 2026-05-04 03:34 | 30.76462 | 121.29063 | 10719 ft | 286 kts | 5° |
| 2026-05-04 03:34 | 30.78444 | 121.29338 | 10303 ft | 288 kts | 5° |
| 2026-05-04 03:35 | 30.80433 | 121.29614 | 9940 ft | 287 kts | 5° |
| 2026-05-04 03:35 | 30.82403 | 121.29890 | 9592 ft | 284 kts | 5° |
| 2026-05-04 03:35 | 30.84359 | 121.30162 | 9275 ft | 281 kts | 5° |
| 2026-05-04 03:35 | 30.86290 | 121.30437 | 8972 ft | 278 kts | 5° |
| 2026-05-04 03:36 | 30.88208 | 121.30710 | 8898 ft | 277 kts | 5° |
| 2026-05-04 03:36 | 30.90123 | 121.30980 | 8897 ft | 277 kts | 5° |
| 2026-05-04 03:36 | 30.92037 | 121.31252 | 8896 ft | 276 kts | 5° |
| 2026-05-04 03:36 | 30.93932 | 121.31523 | 8584 ft | 275 kts | 5° |
| 2026-05-04 03:37 | 30.95808 | 121.31791 | 7975 ft | 270 kts | 5° |
| 2026-05-04 03:37 | 30.97663 | 121.32057 | 7454 ft | 267 kts | 5° |
| 2026-05-04 03:37 | 30.99500 | 121.32318 | 7305 ft | 267 kts | 4° |
| 2026-05-04 03:37 | 31.01345 | 121.32584 | 7139 ft | 265 kts | 5° |
| 2026-05-04 03:38 | 31.03168 | 121.32851 | 6982 ft | 264 kts | 5° |
| 2026-05-04 03:38 | 31.04990 | 121.33116 | 6826 ft | 263 kts | 5° |
| 2026-05-04 03:38 | 31.06800 | 121.33376 | 6699 ft | 264 kts | 4° |
| 2026-05-04 03:38 | 31.08671 | 121.33641 | 6660 ft | 287 kts | 4° |
| 2026-05-04 03:39 | 31.10663 | 121.33844 | 6597 ft | 297 kts | 357° |
| 2026-05-04 03:39 | 31.12562 | 121.33338 | 6339 ft | 268 kts | 332° |
| 2026-05-04 03:39 | 31.13927 | 121.31992 | 6000 ft | 251 kts | 311° |
| 2026-05-04 03:39 | 31.15041 | 121.30393 | 5880 ft | 258 kts | 309° |
| 2026-05-04 03:40 | 31.16168 | 121.28753 | 5707 ft | 257 kts | 310° |
| 2026-05-04 03:40 | 31.17290 | 121.27137 | 5544 ft | 256 kts | 310° |
| 2026-05-04 03:40 | 31.18402 | 121.25547 | 5392 ft | 257 kts | 310° |
| 2026-05-04 03:40 | 31.19580 | 121.23985 | 5234 ft | 257 kts | 317° |
| 2026-05-04 03:41 | 31.21112 | 121.22871 | 5075 ft | 258 kts | 339° |
| 2026-05-04 03:41 | 31.22852 | 121.22512 | 4935 ft | 258 kts | 355° |
| 2026-05-04 03:41 | 31.24683 | 121.22430 | 4893 ft | 260 kts | 356° |
| 2026-05-04 03:41 | 31.26466 | 121.22361 | 4905 ft | 260 kts | 356° |
| 2026-05-04 03:42 | 31.28277 | 121.22270 | 4895 ft | 260 kts | 356° |
| 2026-05-04 03:42 | 31.30087 | 121.22176 | 4894 ft | 260 kts | 355° |
| 2026-05-04 03:42 | 31.31824 | 121.22086 | 4773 ft | 241 kts | 356° |
| 2026-05-04 03:42 | 31.33445 | 121.22005 | 4463 ft | 228 kts | 354° |
| 2026-05-04 03:43 | 31.35024 | 121.21916 | 3983 ft | 226 kts | 355° |
| 2026-05-04 03:43 | 31.36546 | 121.22132 | 3725 ft | 222 kts | 17° |
| 2026-05-04 03:43 | 31.37801 | 121.23212 | 3583 ft | 231 kts | 53° |
| 2026-05-04 03:43 | 31.38312 | 121.24974 | 3479 ft | 231 kts | 84° |
| 2026-05-04 03:44 | 31.38334 | 121.26850 | 3371 ft | 231 kts | 91° |
| 2026-05-04 03:44 | 31.38305 | 121.28694 | 3309 ft | 222 kts | 90° |
| 2026-05-04 03:44 | 31.38278 | 121.30431 | 3143 ft | 205 kts | 94° |
| 2026-05-04 03:44 | 31.37793 | 121.31940 | 2996 ft | 201 kts | 129° |
| 2026-05-04 03:45 | 31.36646 | 121.32798 | 2931 ft | 198 kts | 166° |
| 2026-05-04 03:45 | 31.35298 | 121.32926 | 2790 ft | 191 kts | 185° |
| 2026-05-04 03:45 | 31.33952 | 121.32874 | 2510 ft | 195 kts | 182° |
| 2026-05-04 03:45 | 31.32568 | 121.32911 | 2252 ft | 204 kts | 180° |
| 2026-05-04 03:46 | 31.31163 | 121.33015 | 1974 ft | 197 kts | 179° |
| 2026-05-04 03:46 | 31.29828 | 121.33083 | 1701 ft | 187 kts | 180° |
| 2026-05-04 03:46 | 31.28568 | 121.33150 | 1455 ft | 177 kts | 180° |
| 2026-05-04 03:46 | 31.27355 | 121.33218 | 1223 ft | 171 kts | 181° |
| 2026-05-04 03:47 | 31.26196 | 121.33275 | 1050 ft | 162 kts | 178° |
| 2026-05-04 03:47 | 31.25083 | 121.33339 | 836 ft | 158 kts | 180° |
| 2026-05-04 03:47 | 31.23997 | 121.33412 | 647 ft | 153 kts | 180° |
| 2026-05-04 03:47 | 31.22946 | 121.33467 | 433 ft | 156 kts | 181° |
| 2026-05-04 03:48 | 31.21834 | 121.33512 | 224 ft | 159 kts | 179° |
| 2026-05-04 03:48 | 31.20759 | 121.33580 | 51 ft | 149 kts | 179° |
| 2026-05-04 03:48 | 31.19808 | 121.33616 | 26 ft | 132 kts | 179° |
| 2026-05-04 03:48 | 31.19097 | 121.33666 | 28 ft | 62 kts | 178° |
| 2026-05-04 03:49 | 31.18784 | 121.33684 | 26 ft | 43 kts | 176° |
| 2026-05-04 03:49 | 31.18494 | 121.33699 | 27 ft | 40 kts | 178° |
| 2026-05-04 03:49 | 31.18370 | 121.33754 | 28 ft | 13 kts | 107° |
| 2026-05-04 03:49 | 31.18371 | 121.33868 | 29 ft | 16 kts | 78° |
| 2026-05-04 03:50 | 31.18463 | 121.33952 | 28 ft | 19 kts | 3° |
| 2026-05-04 03:50 | 31.18599 | 121.33947 | 28 ft | 21 kts | 357° |
| 2026-05-04 03:50 | 31.18752 | 121.33937 | 28 ft | 23 kts | 356° |
| 2026-05-04 03:50 | 31.18917 | 121.33931 | 28 ft | 25 kts | 358° |
| 2026-05-04 03:51 | 31.19094 | 121.33919 | 28 ft | 25 kts | 356° |
| 2026-05-04 03:51 | 31.19277 | 121.33912 | 28 ft | 27 kts | 359° |
| 2026-05-04 03:51 | 31.19466 | 121.33902 | 28 ft | 28 kts | 354° |
| 2026-05-04 03:51 | 31.19660 | 121.33892 | 28 ft | 29 kts | 357° |
| 2026-05-04 03:52 | 31.19844 | 121.33879 | 28 ft | 16 kts | 357° |
| 2026-05-04 03:52 | 31.19880 | 121.33892 | 28 ft | 2 kts | 63° |
| 2026-05-04 03:52 | 31.19894 | 121.33946 | 29 ft | 11 kts | 78° |
| 2026-05-04 03:52 | 31.19904 | 121.34041 | 27 ft | 12 kts | 88° |
| 2026-05-04 03:53 | 31.19906 | 121.34128 | 28 ft | 10 kts | 88° |
| 2026-05-04 03:53 | 31.19911 | 121.34199 | 29 ft | 8 kts | 86° |
| 2026-05-04 03:53 | 31.19905 | 121.34245 | 28 ft | 4 kts | 124° |
| 2026-05-04 03:53 | 31.19892 | 121.34255 | 28 ft | 2 kts | 148° |
| 2026-05-04 03:54 | 31.19866 | 121.34265 | 30 ft | 5 kts | 174° |
| 2026-05-04 03:54 | 31.19843 | 121.34266 | 27 ft | 1 kts | 177° |
| 2026-05-04 03:54 | 31.19841 | 121.34266 | 29 ft | 1 kts | 177° |
| 2026-05-04 03:54 | 31.19836 | 121.34267 | 28 ft | 0 kts | 177° |